Time;durP1;ratioP1;P1;durP2;ratioP2;P2;SDS_P1;SDS_P2;PMS_P1;PMS_P2;Temp;Humidity;BMP_temperature;BMP_pressure;BME280_temperature;BME280_humidity;BME280_pressure;Samples;Min_cycle;Max_cycle;Signal;HPM_P1;HPM_P2
2021/01/26 00:00:57;;;;;;;1.97;0.30;;;7.00;39.00;;;;;;5017720;28;20491;-52
2021/01/26 00:03:23;;;;;;;1.90;0.43;;;7.00;36.80;;;;;;5019920;28;20557;-52
2021/01/26 00:05:49;;;;;;;1.60;0.40;;;7.00;39.80;;;;;;4993326;28;20045;-52
2021/01/26 00:08:15;;;;;;;2.10;0.23;;;7.00;36.70;;;;;;5014128;28;20032;-51
2021/01/26 00:10:41;;;;;;;0.97;0.20;;;7.00;36.80;;;;;;5011832;28;20063;-52
2021/01/26 00:13:08;;;;;;;0.20;0.10;;;7.00;38.50;;;;;;4999491;28;20042;-51
2021/01/26 00:15:34;;;;;;;2.67;0.30;;;7.00;35.40;;;;;;4994870;28;20044;-55
2021/01/26 00:18:00;;;;;;;0.37;0.10;;;7.10;36.50;;;;;;4996779;28;20046;-53
2021/01/26 00:20:26;;;;;;;0.53;0.10;;;7.00;36.00;;;;;;5001697;28;20038;-53
2021/01/26 00:22:52;;;;;;;2.47;0.17;;;6.90;36.00;;;;;;4993243;28;20050;-54
2021/01/26 00:25:22;;;;;;;0.37;0.00;;;7.00;37.10;;;;;;5001355;28;20027;-53
2021/01/26 00:27:48;;;;;;;1.17;0.00;;;7.00;37.00;;;;;;5000014;28;20057;-51
2021/01/26 00:30:19;;;;;;;0.43;0.13;;;7.10;37.10;;;;;;4999624;28;20458;-52
2021/01/26 00:32:45;;;;;;;0.50;0.10;;;7.10;37.60;;;;;;4996292;28;20392;-53
2021/01/26 00:35:13;;;;;;;0.00;0.00;;;7.10;37.40;;;;;;5034265;28;20062;-55
2021/01/26 00:37:39;;;;;;;0.67;0.10;;;7.10;36.70;;;;;;4987072;28;20034;-52
2021/01/26 00:40:05;;;;;;;0.03;0.00;;;7.10;37.10;;;;;;5007435;28;20513;-51
2021/01/26 00:42:31;;;;;;;0.30;0.10;;;7.00;37.00;;;;;;5007801;28;20677;-55
2021/01/26 00:44:57;;;;;;;0.63;0.20;;;7.00;35.50;;;;;;5006172;28;20109;-52
2021/01/26 00:47:22;;;;;;;0.40;0.30;;;7.00;37.20;;;;;;5041894;28;20050;-57
2021/01/26 00:49:48;;;;;;;0.20;0.10;;;6.90;36.00;;;;;;5012745;28;20067;-56
2021/01/26 00:52:14;;;;;;;0.50;0.10;;;6.80;36.10;;;;;;4995566;28;20040;-55
2021/01/26 00:54:39;;;;;;;0.27;0.10;;;6.90;37.20;;;;;;5002818;28;20035;-54
2021/01/26 00:57:05;;;;;;;3.30;0.10;;;6.80;37.30;;;;;;5001683;28;20496;-54
2021/01/26 00:59:32;;;;;;;1.00;0.30;;;6.90;37.50;;;;;;5008341;28;20046;-55
2021/01/26 01:01:57;;;;;;;0.60;0.10;;;6.90;37.90;;;;;;5013710;28;20472;-53
2021/01/26 01:04:23;;;;;;;3.20;0.47;;;6.90;37.60;;;;;;5009326;28;20050;-52
2021/01/26 01:06:49;;;;;;;0.40;0.10;;;6.80;38.70;;;;;;4998593;28;20042;-55
2021/01/26 01:09:15;;;;;;;0.43;0.10;;;6.80;37.50;;;;;;5009557;28;20048;-51
2021/01/26 01:11:44;;;;;;;0.17;0.10;;;6.80;40.50;;;;;;4993770;28;20034;-55
2021/01/26 01:14:09;;;;;;;0.30;0.20;;;6.80;39.50;;;;;;5004849;28;20041;-53
2021/01/26 01:16:35;;;;;;;0.37;0.20;;;6.80;39.30;;;;;;4977514;28;20475;-52
2021/01/26 01:19:01;;;;;;;0.70;0.33;;;6.90;40.50;;;;;;5004200;28;20068;-59
2021/01/26 01:21:27;;;;;;;0.13;0.10;;;6.80;40.50;;;;;;5000650;28;20050;-52
2021/01/26 01:23:52;;;;;;;0.50;0.10;;;6.90;39.90;;;;;;5005887;28;20507;-51
2021/01/26 01:26:18;;;;;;;1.07;0.37;;;6.90;38.00;;;;;;5009236;28;20034;-53
2021/01/26 01:28:44;;;;;;;0.83;0.10;;;6.90;40.50;;;;;;4986256;28;20124;-54
2021/01/26 01:31:09;;;;;;;1.33;0.20;;;6.80;41.50;;;;;;5000972;28;20107;-52
2021/01/26 01:33:35;;;;;;;0.30;0.30;;;6.80;42.00;;;;;;4998585;28;20088;-55
2021/01/26 01:36:00;;;;;;;0.40;0.27;;;6.70;41.30;;;;;;5006346;28;20087;-53
2021/01/26 01:38:26;;;;;;;0.90;0.20;;;6.70;41.90;;;;;;4979421;28;20052;-53
2021/01/26 01:40:53;;;;;;;0.30;0.10;;;6.80;43.20;;;;;;4995678;28;20050;-55
2021/01/26 01:43:19;;;;;;;0.40;0.30;;;6.70;44.10;;;;;;5001210;28;20073;-55
2021/01/26 01:45:45;;;;;;;0.70;0.23;;;6.70;42.70;;;;;;5008528;28;20110;-53
2021/01/26 01:48:25;;;;;;;0.60;0.27;;;6.70;42.40;;;;;;5004767;28;20042;-52
2021/01/26 01:50:58;;;;;;;0.47;0.20;;;6.70;42.10;;;;;;5001708;28;20042;-51
2021/01/26 01:53:35;;;;;;;1.50;0.10;;;6.70;43.50;;;;;;5002862;28;20038;-51
2021/01/26 01:56:09;;;;;;;0.67;0.10;;;6.80;41.20;;;;;;5008229;28;20040;-53
2021/01/26 01:58:41;;;;;;;0.75;0.20;;;6.70;41.80;;;;;;4998511;28;20041;-52
2021/01/26 02:01:13;;;;;;;1.23;0.20;;;6.70;40.70;;;;;;5003318;28;20407;-53
2021/01/26 02:03:46;;;;;;;0.33;0.17;;;6.70;41.60;;;;;;5028192;28;20069;-53
2021/01/26 02:06:13;;;;;;;0.20;0.10;;;6.70;41.40;;;;;;4992066;28;20053;-54
2021/01/26 02:08:53;;;;;;;1.60;0.20;;;6.70;40.40;;;;;;5000461;28;20100;-55
2021/01/26 02:11:20;;;;;;;1.37;0.20;;;6.70;38.10;;;;;;4994713;28;20390;-53
2021/01/26 02:13:46;;;;;;;1.90;0.10;;;6.70;39.40;;;;;;5003241;28;20038;-51
2021/01/26 02:16:42;;;;;;;1.37;0.53;;;6.70;40.60;;;;;;4994098;28;20108;-53
2021/01/26 02:19:32;;;;;;;0.40;0.10;;;6.80;39.30;;;;;;4976960;28;20046;-54
2021/01/26 02:22:17;;;;;;;0.60;0.00;;;6.70;41.70;;;;;;5002121;28;21080;-51
2021/01/26 02:25:20;;;;;;;0.10;0.00;;;6.70;41.60;;;;;;4979685;28;20471;-51
2021/01/26 02:28:24;;;;;;;0.20;0.10;;;6.60;40.40;;;;;;4986819;28;20307;-53
2021/01/26 02:31:07;;;;;;;0.43;0.10;;;6.60;40.90;;;;;;4987122;28;20495;-52
2021/01/26 02:34:10;;;;;;;0.60;0.10;;;6.60;42.20;;;;;;5028817;28;20032;-55
2021/01/26 02:37:06;;;;;;;0.87;0.37;;;6.50;40.20;;;;;;5016948;28;20030;-51
2021/01/26 02:39:34;;;;;;;0.30;0.10;;;6.50;42.10;;;;;;5002431;28;20483;-53
2021/01/26 02:42:05;;;;;;;0.50;0.10;;;6.50;41.90;;;;;;5007993;27;20104;-52
2021/01/26 02:44:52;;;;;;;2.00;0.10;;;6.50;40.90;;;;;;5034931;28;20093;-54
2021/01/26 02:47:55;;;;;;;1.13;0.20;;;6.60;40.90;;;;;;4977011;28;20030;-54
2021/01/26 02:50:34;;;;;;;1.40;0.10;;;6.60;42.90;;;;;;5009275;28;20053;-51
2021/01/26 02:53:31;;;;;;;0.53;0.10;;;6.50;40.80;;;;;;5032809;28;20064;-52
2021/01/26 02:56:09;;;;;;;0.10;0.10;;;6.50;39.20;;;;;;4973670;28;20467;-53
2021/01/26 02:58:48;;;;;;;0.00;0.00;;;6.50;40.80;;;;;;5018445;28;20040;-53
2021/01/26 03:01:14;;;;;;;0.00;0.00;;;6.50;41.70;;;;;;4991983;28;20107;-54
2021/01/26 03:03:46;;;;;;;0.30;0.00;;;6.50;42.90;;;;;;5000135;28;20031;-54
2021/01/26 03:06:27;;;;;;;0.20;0.10;;;6.50;41.90;;;;;;5010240;28;20041;-53
2021/01/26 03:08:58;;;;;;;0.30;0.20;;;6.50;44.60;;;;;;4998525;28;20477;-54
2021/01/26 03:11:57;;;;;;;0.10;0.00;;;6.50;44.30;;;;;;4989316;28;20042;-52
2021/01/26 03:14:25;;;;;;;0.10;0.10;;;6.50;43.90;;;;;;4976173;28;20164;-52
2021/01/26 03:17:04;;;;;;;0.60;0.10;;;6.40;43.40;;;;;;5012881;28;20038;-54
2021/01/26 03:19:33;;;;;;;0.10;0.10;;;6.40;44.20;;;;;;4978331;28;20407;-54
2021/01/26 03:22:01;;;;;;;0.10;0.00;;;6.40;44.90;;;;;;4989577;28;20476;-56
2021/01/26 03:24:34;;;;;;;1.80;0.10;;;6.50;44.90;;;;;;5023229;28;20506;-52
2021/01/26 03:27:12;;;;;;;0.07;0.00;;;6.40;44.10;;;;;;4996493;28;20122;-52
2021/01/26 03:29:41;;;;;;;0.30;0.10;;;6.40;42.80;;;;;;4974286;28;20034;-52
2021/01/26 03:32:12;;;;;;;0.47;0.10;;;6.50;39.90;;;;;;5001431;28;20038;-51
2021/01/26 03:34:38;;;;;;;0.20;0.03;;;6.50;43.40;;;;;;4999110;28;20496;-55
2021/01/26 03:37:05;;;;;;;0.23;0.17;;;6.50;41.90;;;;;;4997889;28;20037;-55
2021/01/26 03:39:31;;;;;;;0.40;0.10;;;6.50;44.50;;;;;;4999109;28;20058;-53
2021/01/26 03:41:58;;;;;;;0.73;0.40;;;6.40;43.50;;;;;;5003616;28;20556;-53
2021/01/26 03:44:24;;;;;;;0.00;0.00;;;6.30;44.70;;;;;;5000265;28;20033;-52
2021/01/26 03:47:00;;;;;;;0.00;0.00;;;6.40;44.00;;;;;;5038152;28;20042;-53
2021/01/26 03:49:31;;;;;;;0.00;0.00;;;6.40;44.10;;;;;;4999288;28;20042;-56
2021/01/26 03:52:21;;;;;;;0.00;0.00;;;6.40;41.30;;;;;;5002080;28;20509;-53
2021/01/26 03:55:26;;;;;;;0.40;0.10;;;6.50;38.90;;;;;;4969971;28;20356;-51
2021/01/26 03:58:18;;;;;;;0.33;0.10;;;6.50;41.30;;;;;;4923590;28;20084;-52
2021/01/26 04:00:57;;;;;;;0.67;0.00;;;6.40;36.40;;;;;;4970964;28;20475;-54
2021/01/26 04:03:54;;;;;;;0.20;0.00;;;6.50;39.60;;;;;;4998109;28;20050;-51
2021/01/26 04:06:35;;;;;;;0.00;0.00;;;6.40;36.20;;;;;;4963622;28;20041;-51
2021/01/26 04:09:11;;;;;;;0.00;0.00;;;6.40;35.50;;;;;;5038059;28;20053;-54
2021/01/26 04:12:04;;;;;;;0.07;0.00;;;6.40;35.20;;;;;;4998866;28;20038;-56
2021/01/26 04:14:48;;;;;;;0.10;0.00;;;6.40;35.90;;;;;;5004268;28;20043;-53
2021/01/26 04:17:20;;;;;;;0.63;0.00;;;6.50;34.40;;;;;;4975783;28;20042;-54
2021/01/26 04:19:53;;;;;;;0.07;0.00;;;6.50;33.00;;;;;;4992786;28;20042;-52
2021/01/26 04:22:20;;;;;;;0.30;0.10;;;6.50;36.30;;;;;;4994884;28;20074;-53
2021/01/26 04:24:46;;;;;;;0.00;0.00;;;6.50;35.00;;;;;;5031022;28;20040;-51
2021/01/26 04:27:16;;;;;;;0.30;0.10;;;6.50;33.30;;;;;;5000358;28;20407;-52
2021/01/26 04:29:42;;;;;;;0.23;0.00;;;6.50;33.30;;;;;;4999684;28;20444;-52
2021/01/26 04:32:08;;;;;;;0.10;0.10;;;6.50;34.50;;;;;;5008668;28;20095;-53
2021/01/26 04:34:34;;;;;;;0.07;0.00;;;6.60;35.90;;;;;;5028861;28;20038;-52
2021/01/26 04:36:59;;;;;;;0.10;0.00;;;6.60;35.00;;;;;;5040076;28;20519;-54
2021/01/26 04:39:25;;;;;;;0.53;0.10;;;6.50;34.10;;;;;;5030216;28;20038;-56
2021/01/26 04:42:00;;;;;;;0.30;0.20;;;6.60;35.30;;;;;;5001191;28;20051;-55
2021/01/26 04:44:43;;;;;;;0.20;0.00;;;6.70;34.90;;;;;;5003303;28;20046;-56
2021/01/26 04:47:14;;;;;;;0.67;0.10;;;6.70;35.90;;;;;;4978448;28;20455;-54
2021/01/26 04:50:23;;;;;;;0.23;0.10;;;6.60;35.30;;;;;;4999456;28;20050;-54
2021/01/26 04:53:05;;;;;;;0.97;0.30;;;6.60;37.70;;;;;;4958473;28;20038;-55
2021/01/26 04:55:56;;;;;;;1.83;0.73;;;6.50;35.80;;;;;;4997264;28;20022;-54
2021/01/26 04:58:52;;;;;;;3.50;1.33;;;6.60;36.90;;;;;;4948539;28;20034;-56
2021/01/26 05:01:49;;;;;;;6.33;3.20;;;6.50;38.70;;;;;;4953888;28;20121;-55
2021/01/26 05:04:23;;;;;;;6.33;3.03;;;6.40;33.90;;;;;;4953389;28;20436;-52
2021/01/26 05:06:52;;;;;;;11.17;3.87;;;6.40;38.70;;;;;;5003857;28;20096;-56
2021/01/26 05:09:38;;;;;;;7.90;2.90;;;6.30;38.30;;;;;;5032295;28;20042;-52
2021/01/26 05:12:08;;;;;;;8.73;3.00;;;6.30;36.20;;;;;;5004817;28;20121;-54
2021/01/26 05:14:39;;;;;;;5.67;2.30;;;6.30;38.70;;;;;;4997457;28;20046;-56
2021/01/26 05:17:19;;;;;;;5.33;2.10;;;6.30;38.50;;;;;;5001849;28;20046;-53
2021/01/26 05:20:06;;;;;;;5.70;1.47;;;6.40;37.20;;;;;;5011280;28;20372;-54
2021/01/26 05:22:38;;;;;;;2.70;1.10;;;6.30;36.90;;;;;;5010401;28;20069;-56
2021/01/26 05:25:10;;;;;;;3.47;0.97;;;6.30;36.80;;;;;;4971014;28;20120;-56
2021/01/26 05:27:35;;;;;;;3.13;0.90;;;6.30;35.70;;;;;;4999583;28;20030;-55
2021/01/26 05:30:09;;;;;;;2.40;0.77;;;6.30;37.10;;;;;;5002423;28;20039;-53
2021/01/26 05:32:37;;;;;;;2.07;1.00;;;6.30;37.00;;;;;;4999819;28;20026;-55
2021/01/26 05:35:04;;;;;;;2.13;0.60;;;6.20;36.20;;;;;;4990912;28;20526;-55
2021/01/26 05:37:32;;;;;;;2.00;0.50;;;6.30;36.70;;;;;;5028471;28;20345;-53
2021/01/26 05:40:05;;;;;;;1.83;0.50;;;6.20;36.10;;;;;;5005803;28;20098;-52
2021/01/26 05:42:33;;;;;;;1.53;0.50;;;6.30;35.90;;;;;;4986745;28;20078;-53
2021/01/26 05:45:10;;;;;;;1.40;0.80;;;6.20;36.20;;;;;;4994932;28;20452;-54
2021/01/26 05:47:38;;;;;;;2.47;0.40;;;6.30;38.10;;;;;;5010103;28;20038;-53
2021/01/26 05:50:27;;;;;;;1.30;0.60;;;6.20;38.10;;;;;;5000555;28;20421;-51
2021/01/26 05:52:56;;;;;;;1.37;0.40;;;6.30;37.80;;;;;;5005976;28;20360;-52
2021/01/26 05:55:27;;;;;;;0.70;0.20;;;6.20;39.60;;;;;;5003782;28;20565;-55
2021/01/26 05:57:54;;;;;;;0.83;0.20;;;6.20;36.20;;;;;;5000138;28;20406;-51
2021/01/26 06:00:25;;;;;;;0.50;0.20;;;6.20;36.60;;;;;;4999659;28;20046;-55
2021/01/26 06:03:09;;;;;;;1.07;0.20;;;6.20;36.90;;;;;;5011980;28;20046;-53
2021/01/26 06:05:35;;;;;;;0.57;0.10;;;6.30;37.50;;;;;;5004187;28;20046;-54
2021/01/26 06:08:10;;;;;;;1.43;0.10;;;6.30;37.20;;;;;;5001894;28;20384;-54
2021/01/26 06:10:37;;;;;;;0.45;0.17;;;6.30;35.80;;;;;;4996890;28;20152;-52
2021/01/26 06:13:04;;;;;;;0.63;0.20;;;6.30;34.90;;;;;;5011561;28;20061;-53
2021/01/26 06:15:35;;;;;;;0.67;0.40;;;6.20;33.80;;;;;;5007800;28;20038;-51
2021/01/26 06:18:32;;;;;;;1.00;0.30;;;6.30;34.60;;;;;;4998530;28;20030;-54
2021/01/26 06:21:08;;;;;;;0.40;0.20;;;6.10;32.80;;;;;;4976023;28;20483;-52
2021/01/26 06:23:35;;;;;;;0.40;0.20;;;6.10;32.10;;;;;;5004008;28;20091;-54
2021/01/26 06:26:08;;;;;;;2.03;0.30;;;6.10;35.10;;;;;;5001290;28;20483;-51
2021/01/26 06:28:37;;;;;;;2.80;0.30;;;6.10;34.50;;;;;;5002165;28;20053;-51
2021/01/26 06:31:30;;;;;;;1.47;0.30;;;6.10;33.80;;;;;;5002179;28;20037;-55
2021/01/26 06:34:11;;;;;;;0.10;0.10;;;6.20;33.30;;;;;;5008932;28;20118;-55
2021/01/26 06:37:03;;;;;;;1.90;0.47;;;6.20;34.50;;;;;;4997318;28;20057;-54
2021/01/26 06:39:49;;;;;;;0.20;0.20;;;6.10;32.80;;;;;;5002056;28;20067;-58
2021/01/26 06:42:20;;;;;;;2.43;0.50;;;6.10;33.10;;;;;;4987324;28;20037;-53
2021/01/26 06:45:03;;;;;;;0.73;0.20;;;6.20;35.80;;;;;;4997221;28;20045;-56
2021/01/26 06:47:59;;;;;;;0.50;0.30;;;6.20;35.20;;;;;;5004140;28;20042;-52
2021/01/26 06:50:49;;;;;;;1.60;0.30;;;6.30;34.70;;;;;;4989187;28;20088;-54
2021/01/26 06:53:46;;;;;;;1.50;0.50;;;6.20;33.00;;;;;;4977815;28;20128;-54
2021/01/26 06:56:24;;;;;;;0.43;0.33;;;6.20;33.30;;;;;;4987334;28;20046;-56
2021/01/26 06:58:49;;;;;;;2.20;0.30;;;6.20;32.30;;;;;;5001563;28;20142;-55
2021/01/26 07:01:30;;;;;;;2.70;0.27;;;6.20;32.90;;;;;;5001890;28;20514;-56
2021/01/26 07:04:23;;;;;;;0.87;0.30;;;6.30;35.00;;;;;;5008352;28;20075;-53
2021/01/26 07:07:11;;;;;;;1.03;0.30;;;6.30;34.70;;;;;;4977245;28;20479;-55
2021/01/26 07:09:42;;;;;;;1.87;0.33;;;6.30;35.60;;;;;;4997580;28;20555;-57
2021/01/26 07:12:13;;;;;;;1.50;0.30;;;6.30;33.00;;;;;;5003941;28;20031;-52
2021/01/26 07:15:10;;;;;;;2.07;0.77;;;6.30;32.80;;;;;;4995572;28;20038;-55
2021/01/26 07:18:03;;;;;;;1.23;0.40;;;6.30;34.90;;;;;;5003705;28;22147;-57
2021/01/26 07:20:51;;;;;;;0.60;0.50;;;6.30;33.20;;;;;;5013704;28;20174;-57
2021/01/26 07:23:55;;;;;;;2.43;0.67;;;6.40;34.30;;;;;;4977458;28;20428;-55
2021/01/26 07:26:41;;;;;;;1.57;0.40;;;6.40;33.20;;;;;;4978291;28;20030;-55
2021/01/26 07:29:36;;;;;;;2.57;0.33;;;6.50;33.40;;;;;;5000828;28;20042;-57
2021/01/26 07:32:23;;;;;;;1.50;0.30;;;6.50;34.30;;;;;;5010805;28;20042;-56
2021/01/26 07:35:18;;;;;;;3.70;0.70;;;6.40;35.60;;;;;;4974554;28;20273;-55
2021/01/26 07:37:57;;;;;;;1.55;0.60;;;6.50;38.00;;;;;;4969211;28;20115;-55
2021/01/26 07:40:25;;;;;;;1.00;0.47;;;6.40;36.40;;;;;;4999779;28;20054;-53
2021/01/26 07:42:57;;;;;;;2.63;0.50;;;6.50;36.90;;;;;;4999831;28;20054;-53
2021/01/26 07:45:33;;;;;;;1.70;0.50;;;6.50;35.80;;;;;;5015450;28;20095;-55
2021/01/26 07:48:13;;;;;;;2.20;0.63;;;6.50;36.90;;;;;;5007541;28;20628;-55
2021/01/26 07:50:46;;;;;;;4.13;0.77;;;6.50;35.00;;;;;;4989121;28;20067;-53
2021/01/26 07:53:43;;;;;;;3.97;0.90;;;6.50;36.70;;;;;;4996080;28;20108;-56
2021/01/26 07:56:36;;;;;;;3.43;1.37;;;6.50;35.40;;;;;;4944274;28;20083;-58
2021/01/26 07:59:12;;;;;;;5.73;0.97;;;6.50;35.40;;;;;;4997258;28;20116;-57
2021/01/26 08:01:51;;;;;;;3.00;1.00;;;6.60;35.90;;;;;;4984311;28;20056;-57
2021/01/26 08:04:17;;;;;;;1.77;1.10;;;6.60;33.90;;;;;;5012588;28;20395;-57
2021/01/26 08:06:58;;;;;;;4.40;1.00;;;6.60;37.00;;;;;;5003458;28;20039;-58
2021/01/26 08:09:30;;;;;;;2.77;1.00;;;6.70;34.50;;;;;;4999558;28;20133;-56
2021/01/26 08:12:05;;;;;;;2.83;1.17;;;6.70;34.90;;;;;;5007066;28;20049;-57
2021/01/26 08:14:37;;;;;;;3.07;1.00;;;6.80;34.90;;;;;;4996815;28;20114;-58
2021/01/26 08:17:09;;;;;;;4.60;1.23;;;6.80;34.70;;;;;;5000758;28;20103;-57
2021/01/26 08:19:39;;;;;;;2.63;1.17;;;6.80;35.40;;;;;;4998508;28;20520;-55
2021/01/26 08:22:21;;;;;;;3.00;1.00;;;6.90;35.50;;;;;;5006484;28;20056;-56
2021/01/26 08:24:56;;;;;;;7.33;1.10;;;6.90;34.80;;;;;;4998186;28;20490;-57
2021/01/26 08:27:24;;;;;;;;;;;6.90;36.30;;;;;;5001754;28;20116;-58
2021/01/26 08:29:49;;;;;;;5.30;1.03;;;6.80;37.10;;;;;;4998446;28;19964;-57
2021/01/26 08:32:27;;;;;;;2.10;1.00;;;6.90;35.90;;;;;;5003978;28;20129;-57
2021/01/26 08:35:23;;;;;;;3.23;1.07;;;6.90;35.40;;;;;;4999347;28;20483;-57
2021/01/26 08:37:52;;;;;;;3.70;0.77;;;7.00;34.10;;;;;;4982771;28;20045;-57
2021/01/26 08:40:41;;;;;;;2.37;0.90;;;6.90;34.10;;;;;;4994471;28;20125;-57
2021/01/26 08:43:07;;;;;;;4.43;0.93;;;7.00;35.80;;;;;;5002582;28;20119;-56
2021/01/26 08:45:33;;;;;;;5.37;0.90;;;7.00;34.00;;;;;;4996447;28;20059;-61
2021/01/26 08:48:05;;;;;;;2.37;1.00;;;7.00;33.70;;;;;;5000974;28;20475;-56
2021/01/26 08:50:37;;;;;;;4.10;1.13;;;7.10;35.40;;;;;;5000302;28;20049;-56
2021/01/26 08:53:20;;;;;;;2.50;0.90;;;7.20;34.10;;;;;;4999062;28;20095;-55
2021/01/26 08:55:58;;;;;;;2.50;1.00;;;7.30;33.50;;;;;;4970477;28;20034;-57
2021/01/26 08:58:42;;;;;;;6.33;1.07;;;7.30;34.40;;;;;;4991891;28;20042;-56
2021/01/26 09:01:11;;;;;;;3.40;1.07;;;7.40;32.50;;;;;;5009079;27;20714;-57
2021/01/26 09:03:42;;;;;;;3.40;1.50;;;7.50;32.90;;;;;;5001140;28;20066;-54
2021/01/26 09:06:43;;;;;;;4.53;1.00;;;7.60;33.70;;;;;;4996719;28;20186;-57
2021/01/26 09:09:18;;;;;;;2.63;1.20;;;7.60;33.30;;;;;;4949560;28;20037;-57
2021/01/26 09:11:43;;;;;;;5.15;0.90;;;7.60;34.10;;;;;;4985538;28;20050;-54
2021/01/26 09:14:15;;;;;;;4.93;1.20;;;7.70;32.60;;;;;;5000227;28;20046;-55
2021/01/26 09:16:43;;;;;;;2.33;0.63;;;7.70;32.80;;;;;;4996304;28;20111;-55
2021/01/26 09:19:18;;;;;;;2.03;0.50;;;7.70;32.00;;;;;;4997564;28;20041;-56
2021/01/26 09:21:44;;;;;;;3.83;1.20;;;7.80;29.70;;;;;;4996724;28;20060;-56
2021/01/26 09:24:12;;;;;;;2.00;0.73;;;7.90;29.30;;;;;;5002421;28;20061;-54
2021/01/26 09:26:38;;;;;;;3.80;0.50;;;7.80;29.50;;;;;;4999244;28;20050;-57
2021/01/26 09:29:03;;;;;;;3.83;0.80;;;7.90;29.90;;;;;;5000280;28;20927;-57
2021/01/26 09:31:30;;;;;;;1.43;0.90;;;7.90;30.30;;;;;;5004915;28;20126;-56
2021/01/26 09:34:08;;;;;;;2.23;0.87;;;7.80;29.80;;;;;;5010993;28;20078;-55
2021/01/26 09:36:35;;;;;;;3.47;1.90;;;7.90;30.00;;;;;;4979608;28;20038;-57
2021/01/26 09:39:10;;;;;;;5.80;1.40;;;7.90;31.00;;;;;;4998842;28;20095;-56
2021/01/26 09:41:37;;;;;;;1.40;0.90;;;8.00;29.70;;;;;;4996922;28;20145;-53
2021/01/26 09:44:11;;;;;;;4.40;0.90;;;8.00;29.40;;;;;;5000566;28;20098;-58
2021/01/26 09:46:37;;;;;;;;;;;8.10;30.50;;;;;;5003190;28;20056;-53
2021/01/26 09:49:15;;;;;;;2.33;1.40;;;8.00;29.80;;;;;;5006732;28;19940;-56
2021/01/26 09:51:46;;;;;;;2.30;1.30;;;8.10;29.80;;;;;;4971377;28;20177;-58
2021/01/26 09:54:33;;;;;;;3.80;1.30;;;8.10;32.00;;;;;;5009858;27;20226;-56
2021/01/26 09:57:01;;;;;;;2.77;1.70;;;8.20;29.70;;;;;;4970393;28;20479;-56
2021/01/26 09:59:31;;;;;;;3.37;1.40;;;8.20;31.10;;;;;;4995049;28;20528;-57
2021/01/26 10:01:59;;;;;;;1.90;1.03;;;8.20;29.80;;;;;;5018633;28;20072;-57
2021/01/26 10:04:26;;;;;;;2.10;0.67;;;8.30;29.00;;;;;;4996215;28;20440;-55
2021/01/26 10:06:59;;;;;;;9.63;0.60;;;8.40;27.10;;;;;;4999989;28;20121;-57
2021/01/26 10:09:34;;;;;;;2.17;0.37;;;8.50;28.90;;;;;;5011675;28;20034;-58
2021/01/26 10:12:28;;;;;;;1.50;0.40;;;8.50;27.60;;;;;;5000302;28;20053;-56
2021/01/26 10:15:13;;;;;;;1.90;0.40;;;8.50;25.60;;;;;;4971680;28;20034;-56
2021/01/26 10:17:49;;;;;;;0.43;0.22;;;8.60;26.00;;;;;;5012675;28;20076;-56
2021/01/26 10:20:38;;;;;;;1.53;0.50;;;8.70;25.70;;;;;;4995489;28;20112;-57
2021/01/26 10:23:14;;;;;;;0.50;0.40;;;8.70;25.50;;;;;;4997300;28;20046;-61
2021/01/26 10:25:42;;;;;;;0.20;0.13;;;8.70;24.80;;;;;;4995176;28;20041;-58
2021/01/26 10:28:26;;;;;;;1.43;0.10;;;8.80;25.20;;;;;;4998561;28;20091;-57
2021/01/26 10:30:54;;;;;;;5.50;0.30;;;8.80;24.90;;;;;;4992288;28;20484;-57
2021/01/26 10:33:52;;;;;;;4.57;0.40;;;8.90;26.30;;;;;;4999712;28;20063;-57
2021/01/26 10:36:29;;;;;;;6.87;0.30;;;8.90;24.70;;;;;;4955492;28;20042;-56
2021/01/26 10:38:57;;;;;;;1.07;0.20;;;8.90;25.50;;;;;;5012411;28;20434;-56
2021/01/26 10:41:41;;;;;;;0.50;0.20;;;8.90;25.70;;;;;;4989972;28;21019;-57
2021/01/26 10:44:13;;;;;;;1.43;0.27;;;9.00;23.60;;;;;;5001170;28;20479;-55
2021/01/26 10:46:48;;;;;;;0.33;0.10;;;9.10;24.70;;;;;;5000608;28;20056;-56
2021/01/26 10:49:31;;;;;;;2.23;0.13;;;9.10;24.20;;;;;;4996134;28;20046;-56
2021/01/26 10:52:07;;;;;;;4.73;1.47;;;;;;;;;;5007732;28;20052;-56
2021/01/26 10:54:34;;;;;;;0.53;0.10;;;;;;;;;;5015612;28;20516;-58
2021/01/26 10:57:00;;;;;;;1.13;0.07;;;;;;;;;;4998099;28;20034;-60
2021/01/26 10:59:26;;;;;;;5.67;0.20;;;;;;;;;;5009546;28;20569;-57
2021/01/26 11:01:52;;;;;;;2.90;0.20;;;;;;;;;;4999177;28;20074;-57
2021/01/26 11:04:19;;;;;;;3.20;0.37;;;;;;;;;;4998717;28;20034;-57
2021/01/26 11:06:46;;;;;;;0.67;0.30;;;;;;;;;;4994786;28;20152;-57
2021/01/26 11:09:14;;;;;;;0.93;0.13;;;;;;;;;;5001834;28;20046;-56
2021/01/26 11:11:41;;;;;;;1.90;0.20;;;;;;;;;;5001592;28;20402;-56
2021/01/26 11:14:08;;;;;;;0.40;0.20;;;;;;;;;;5014337;28;20091;-56
2021/01/26 11:16:35;;;;;;;0.20;0.10;;;;;;;;;;4999971;28;20050;-60
2021/01/26 11:19:02;;;;;;;0.40;0.40;;;;;;;;;;5017132;28;20038;-56
2021/01/26 11:21:28;;;;;;;1.70;0.10;;;;;;;;;;4997652;28;20142;-57
2021/01/26 11:23:55;;;;;;;0.47;0.10;;;;;;;;;;5004300;28;20046;-56
2021/01/26 11:26:22;;;;;;;1.67;0.90;;;;;;;;;;5001320;28;20139;-52
2021/01/26 11:28:49;;;;;;;1.30;0.60;;;;;;;;;;4998572;28;20563;-57
2021/01/26 11:31:16;;;;;;;1.43;0.20;;;;;;;;;;5003555;28;20077;-58
2021/01/26 11:33:42;;;;;;;0.30;0.10;;;;;;;;;;4997964;28;20058;-54
2021/01/26 11:36:08;;;;;;;1.43;0.20;;;;;;;;;;4985911;28;20038;-56
2021/01/26 11:38:34;;;;;;;0.30;0.30;;;;;;;;;;4997021;28;20498;-59
2021/01/26 11:41:02;;;;;;;0.37;0.20;;;;;;;;;;5016737;28;20087;-55
2021/01/26 11:43:29;;;;;;;0.70;0.10;;;;;;;;;;4997627;28;20065;-55
2021/01/26 11:45:55;;;;;;;0.33;0.10;;;;;;;;;;5000288;28;20042;-55
2021/01/26 11:48:21;;;;;;;1.03;0.10;;;;;;;;;;5003614;28;20035;-55
2021/01/26 11:50:47;;;;;;;0.50;0.20;;;;;;;;;;4998134;28;20054;-55
2021/01/26 11:53:14;;;;;;;0.40;0.10;;;;;;;;;;5000519;28;20049;-56
2021/01/26 11:55:41;;;;;;;2.10;0.27;;;;;;;;;;5017166;28;20046;-55
2021/01/26 11:58:07;;;;;;;1.47;0.17;;;;;;;;;;5000885;28;20048;-56
2021/01/26 12:00:34;;;;;;;4.23;0.30;;;;;;;;;;5003986;28;20113;-54
2021/01/26 12:03:01;;;;;;;1.80;0.30;;;;;;;;;;5003790;28;20514;-55
2021/01/26 12:05:29;;;;;;;2.10;0.20;;;;;;;;;;5002552;28;20049;-56
2021/01/26 12:07:55;;;;;;;0.50;0.20;;;;;;;;;;5000378;28;20168;-57
2021/01/26 12:10:21;;;;;;;0.73;0.30;;;;;;;;;;5013016;27;20034;-56
2021/01/26 12:12:48;;;;;;;0.23;0.10;;;;;;;;;;4998729;28;20420;-57
2021/01/26 12:15:17;;;;;;;0.93;0.37;;;;;;;;;;4997994;28;20052;-57
2021/01/26 12:17:43;;;;;;;0.73;0.10;;;;;;;;;;4998053;28;20048;-58
2021/01/26 12:20:10;;;;;;;0.53;0.20;;;;;;;;;;4997474;28;20390;-58
2021/01/26 12:22:36;;;;;;;2.30;0.30;;;;;;;;;;5007633;28;20129;-55
2021/01/26 12:25:02;;;;;;;0.50;0.10;;;;;;;;;;5007306;28;21408;-56
2021/01/26 12:27:28;;;;;;;0.63;0.20;;;;;;;;;;4999953;28;20157;-57
2021/01/26 12:29:54;;;;;;;5.13;0.60;;;;;;;;;;4996329;28;20219;-57
2021/01/26 12:32:20;;;;;;;1.40;0.30;;;;;;;;;;4998348;28;20034;-57
2021/01/26 12:34:46;;;;;;;0.53;0.33;;;;;;;;;;4995883;28;20045;-55
2021/01/26 12:37:12;;;;;;;0.47;0.20;;;;;;;;;;5000858;28;20038;-55
2021/01/26 12:39:38;;;;;;;0.30;0.20;;;;;;;;;;5010232;27;20133;-56
2021/01/26 12:42:04;;;;;;;1.93;0.40;;;;;;;;;;4998209;28;20053;-61
2021/01/26 12:44:30;;;;;;;1.60;0.20;;;;;;;;;;4996347;28;20034;-56
2021/01/26 12:46:57;;;;;;;0.47;0.30;;;;;;;;;;4973685;28;20044;-56
2021/01/26 12:49:23;;;;;;;2.37;0.20;;;;;;;;;;5000699;28;20057;-56
2021/01/26 12:51:49;;;;;;;0.53;0.30;;;;;;;;;;4994459;28;20045;-56
2021/01/26 12:54:17;;;;;;;1.93;0.27;;;;;;;;;;4998115;28;20041;-57
2021/01/26 12:56:43;;;;;;;1.40;0.13;;;;;;;;;;4997690;28;20406;-56
2021/01/26 12:59:09;;;;;;;0.50;0.10;;;;;;;;;;4998470;28;20077;-56
2021/01/26 13:01:35;;;;;;;1.57;0.60;;;;;;;;;;4996354;28;20489;-59
2021/01/26 13:04:01;;;;;;;2.93;0.40;;;;;;;;;;5000854;28;20038;-56
2021/01/26 13:06:27;;;;;;;0.73;0.30;;;;;;;;;;5009625;27;20502;-57
2021/01/26 13:08:53;;;;;;;1.17;0.60;;;;;;;;;;4999789;28;20134;-55
2021/01/26 13:11:19;;;;;;;1.90;0.40;;;;;;;;;;4998825;28;20124;-56
2021/01/26 13:13:46;;;;;;;1.73;0.40;;;;;;;;;;4998627;28;20092;-56
2021/01/26 13:16:12;;;;;;;2.27;0.23;;;;;;;;;;4997777;28;20042;-55
2021/01/26 13:18:38;;;;;;;0.20;0.20;;;;;;;;;;5000543;28;20038;-56
2021/01/26 13:21:04;;;;;;;1.53;0.20;;;;;;;;;;4996993;28;20045;-55
2021/01/26 13:23:30;;;;;;;1.47;0.60;;;;;;;;;;5000616;28;20045;-54
2021/01/26 13:25:56;;;;;;;1.53;0.30;;;;;;;;;;4999650;28;20069;-56
2021/01/26 13:28:23;;;;;;;1.07;0.13;;;;;;;;;;4995557;28;20070;-55
2021/01/26 13:30:49;;;;;;;0.47;0.00;;;;;;;;;;5012209;28;20042;-57
2021/01/26 13:33:16;;;;;;;0.30;0.10;;;;;;;;;;4994986;28;20062;-56
2021/01/26 13:35:42;;;;;;;3.00;0.20;;;;;;;;;;5001591;28;20953;-57
2021/01/26 13:38:08;;;;;;;5.57;1.40;;;;;;;;;;4996837;28;20038;-55
2021/01/26 13:40:34;;;;;;;3.23;0.77;;;;;;;;;;4999093;28;20486;-57
2021/01/26 13:43:00;;;;;;;2.47;0.30;;;;;;;;;;4996658;28;20065;-58
2021/01/26 13:45:29;;;;;;;2.93;0.30;;;;;;;;;;4996390;28;20106;-56
2021/01/26 13:47:55;;;;;;;2.77;0.10;;;;;;;;;;4996104;28;20042;-58
2021/01/26 13:50:24;;;;;;;2.00;0.20;;;;;;;;;;4999240;28;20105;-55
2021/01/26 13:52:50;;;;;;;1.13;0.10;;;;;;;;;;4994965;28;20042;-56